createdAt,value
2018-05-31T00:01:37.758Z,19.10
2018-05-31T00:04:05.277Z,19.10
2018-05-31T00:06:32.818Z,19.10
2018-05-31T00:09:00.344Z,19.10
2018-05-31T00:11:27.889Z,19.00
2018-05-31T00:13:55.421Z,19.00
2018-05-31T00:16:23.358Z,19.00
2018-05-31T00:18:50.876Z,19.00
2018-05-31T00:21:18.421Z,19.00
2018-05-31T00:23:45.942Z,19.00
2018-05-31T00:26:13.902Z,18.90
2018-05-31T00:28:41.428Z,18.90
2018-05-31T00:31:08.975Z,18.80
2018-05-31T00:33:36.493Z,18.80
2018-05-31T00:36:04.049Z,18.80
2018-05-31T00:38:31.563Z,18.80
2018-05-31T00:40:59.102Z,18.80
2018-05-31T00:43:26.613Z,18.70
2018-05-31T00:45:54.157Z,18.70
2018-05-31T00:48:21.686Z,18.70
2018-05-31T00:50:49.233Z,18.60
2018-05-31T00:53:16.753Z,18.60
2018-05-31T00:55:55.896Z,18.50
2018-05-31T00:58:23.427Z,18.40
2018-05-31T01:00:50.973Z,18.40
2018-05-31T01:03:18.479Z,18.40
2018-05-31T01:05:46.034Z,18.40
2018-05-31T01:08:13.550Z,18.40
2018-05-31T01:10:41.108Z,18.40
2018-05-31T01:13:08.618Z,18.30
2018-05-31T01:15:36.173Z,18.30
2018-05-31T01:18:03.685Z,18.40
2018-05-31T01:20:31.234Z,18.30
2018-05-31T01:22:58.851Z,18.30
2018-05-31T01:25:26.793Z,18.30
2018-05-31T01:27:54.307Z,18.30
2018-05-31T01:30:21.838Z,18.30
2018-05-31T01:32:49.368Z,18.30
2018-05-31T01:35:16.912Z,18.30
2018-05-31T01:37:44.442Z,18.30
2018-05-31T01:40:12.003Z,18.20
2018-05-31T01:42:39.533Z,18.20
2018-05-31T01:45:07.050Z,18.10
2018-05-31T01:47:34.596Z,18.10
2018-05-31T01:50:02.345Z,18.10
2018-05-31T01:52:30.007Z,18.00
2018-05-31T01:54:57.528Z,18.00
2018-05-31T01:57:25.081Z,18.00
2018-05-31T01:59:52.615Z,18.00
2018-05-31T02:02:20.632Z,17.90
2018-05-31T02:04:48.292Z,17.90
2018-05-31T02:07:15.941Z,17.80
2018-05-31T02:09:43.466Z,17.80
2018-05-31T02:12:11.410Z,17.80
2018-05-31T02:14:38.934Z,17.70
2018-05-31T02:17:06.577Z,17.70
2018-05-31T02:19:34.125Z,17.70
2018-05-31T02:22:01.691Z,17.70
2018-05-31T02:24:29.221Z,17.70
2018-05-31T02:26:57.221Z,17.60
2018-05-31T02:29:24.881Z,17.60
2018-05-31T02:31:52.433Z,17.60
2018-05-31T02:34:19.961Z,17.60
2018-05-31T02:36:47.496Z,17.50
2018-05-31T02:39:15.419Z,17.50
2018-05-31T02:41:43.156Z,17.50
2018-05-31T02:44:10.821Z,17.50
2018-05-31T02:46:38.487Z,17.50
2018-05-31T02:49:06.141Z,17.50
2018-05-31T02:51:33.808Z,17.50
2018-05-31T02:54:01.333Z,17.40
2018-05-31T02:56:28.873Z,17.40
2018-05-31T02:58:56.803Z,17.40
2018-05-31T03:01:24.357Z,17.40
2018-05-31T03:03:51.881Z,17.40
2018-05-31T03:06:19.437Z,17.30
2018-05-31T03:08:46.963Z,17.30
2018-05-31T03:11:14.537Z,17.30
2018-05-31T03:13:42.124Z,17.30
2018-05-31T03:16:09.681Z,17.20
2018-05-31T03:18:37.236Z,17.20
2018-05-31T03:21:04.762Z,17.20
2018-05-31T03:23:32.301Z,17.20
2018-05-31T03:25:59.817Z,17.20
2018-05-31T03:28:27.450Z,17.20
2018-05-31T03:30:54.969Z,17.20
2018-05-31T03:33:22.917Z,17.10
2018-05-31T03:35:50.643Z,17.10
2018-05-31T03:38:18.181Z,17.10
2018-05-31T03:40:45.860Z,17.10
2018-05-31T03:43:13.502Z,17.10
2018-05-31T03:45:41.062Z,17.10
2018-05-31T03:48:08.607Z,17.10
2018-05-31T03:50:36.134Z,17.10
2018-05-31T03:53:03.829Z,17.10
2018-05-31T03:55:31.349Z,17.10
2018-05-31T03:57:59.289Z,17.10
2018-05-31T04:00:26.815Z,17.20
2018-05-31T04:02:54.482Z,17.20
2018-05-31T04:05:22.141Z,17.20
2018-05-31T04:07:49.809Z,17.30
2018-05-31T04:10:17.337Z,17.30
2018-05-31T04:12:44.887Z,17.20
2018-05-31T04:15:12.410Z,17.20
2018-05-31T04:17:40.377Z,17.30
2018-05-31T04:20:07.901Z,17.30
2018-05-31T04:22:35.445Z,17.30
2018-05-31T04:25:02.956Z,17.20
2018-05-31T04:27:30.660Z,17.20
2018-05-31T04:29:58.321Z,17.30
2018-05-31T04:32:25.877Z,17.30
2018-05-31T04:34:53.453Z,17.40
2018-05-31T04:37:21.040Z,17.40
2018-05-31T04:39:48.950Z,17.40
2018-05-31T04:42:16.490Z,17.40
2018-05-31T04:44:44.027Z,17.50
2018-05-31T04:47:11.590Z,17.50
2018-05-31T04:49:39.113Z,17.60
2018-05-31T04:52:06.632Z,17.80
2018-05-31T04:54:34.191Z,17.90
2018-05-31T04:57:01.692Z,18.10
2018-05-31T04:59:29.249Z,18.10
2018-05-31T05:01:57.161Z,18.20
2018-05-31T05:04:24.705Z,18.20
2018-05-31T05:06:52.213Z,18.20
2018-05-31T05:09:19.764Z,18.20
2018-05-31T05:11:47.334Z,18.30
2018-05-31T05:14:14.878Z,18.30
2018-05-31T05:16:42.401Z,18.60
2018-05-31T05:19:09.975Z,18.70
2018-05-31T05:21:37.513Z,19.00
2018-05-31T05:24:05.066Z,19.20
2018-05-31T05:26:32.662Z,19.20
2018-05-31T05:29:00.135Z,19.30
2018-05-31T05:31:28.044Z,19.40
2018-05-31T05:33:55.601Z,19.40
2018-05-31T05:36:23.109Z,19.80
2018-05-31T05:38:51.049Z,19.90
2018-05-31T05:41:18.562Z,19.90
2018-05-31T05:43:46.103Z,20.20
2018-05-31T05:46:13.629Z,20.50
2018-05-31T05:48:42.493Z,20.70
2018-05-31T05:51:10.012Z,20.70
2018-05-31T05:53:37.553Z,20.70
2018-05-31T05:56:05.465Z,21.00
2018-05-31T05:58:33.013Z,21.10
2018-05-31T06:01:00.533Z,21.10
2018-05-31T06:03:28.089Z,21.30
2018-05-31T06:05:55.618Z,21.50
2018-05-31T06:08:23.166Z,21.60
2018-05-31T06:10:50.691Z,22.10
2018-05-31T06:13:18.229Z,22.80
2018-05-31T06:15:45.745Z,23.60
2018-05-31T06:18:13.301Z,23.70
2018-05-31T06:20:41.216Z,24.60
2018-05-31T06:23:08.777Z,24.60
2018-05-31T06:25:36.345Z,25.50
2018-05-31T06:28:03.870Z,25.90
2018-05-31T06:30:31.430Z,26.10
2018-05-31T06:32:59.873Z,26.70
2018-05-31T06:35:27.823Z,27.20
2018-05-31T06:37:55.343Z,27.30
2018-05-31T06:40:22.970Z,27.50
2018-05-31T06:42:50.873Z,28.10
2018-05-31T06:45:18.418Z,28.30
2018-05-31T06:47:45.917Z,28.70
2018-05-31T06:50:13.445Z,29.10
2018-05-31T06:52:40.951Z,29.50
2018-05-31T06:55:08.506Z,29.50
2018-05-31T06:57:36.409Z,29.70
2018-05-31T07:00:03.934Z,29.70
2018-05-31T07:02:31.833Z,28.90
2018-05-31T07:04:59.363Z,28.90
2018-05-31T07:07:26.877Z,29.30
2018-05-31T07:09:54.409Z,29.90
2018-05-31T07:12:21.920Z,30.20
2018-05-31T07:14:49.453Z,31.00
2018-05-31T07:17:16.960Z,31.50
2018-05-31T07:19:44.497Z,31.80
2018-05-31T07:22:12.002Z,31.90
2018-05-31T07:24:39.533Z,32.40
2018-05-31T07:27:07.073Z,33.60
2018-05-31T07:29:34.601Z,33.40
2018-05-31T07:32:02.506Z,35.60
2018-05-31T07:34:30.038Z,35.70
2018-05-31T07:36:57.558Z,36.90
2018-05-31T07:39:25.292Z,37.00
2018-05-31T07:41:52.741Z,35.80
2018-05-31T07:44:20.335Z,35.90
2018-05-31T07:46:47.811Z,36.00
2018-05-31T07:49:15.745Z,35.90
2018-05-31T07:51:43.260Z,36.00
2018-05-31T07:54:10.792Z,37.90
2018-05-31T07:56:38.693Z,38.80
2018-05-31T07:59:06.244Z,39.10
2018-05-31T08:01:33.741Z,39.20
2018-05-31T08:04:01.255Z,39.70
2018-05-31T08:06:28.786Z,40.10
2018-05-31T08:08:56.291Z,39.90
2018-05-31T08:11:23.825Z,38.80
2018-05-31T08:13:51.334Z,38.50
2018-05-31T08:16:18.874Z,39.90
2018-05-31T08:18:46.387Z,40.50
2018-05-31T08:21:13.921Z,39.90
2018-05-31T08:23:41.450Z,39.40
2018-05-31T08:26:09.406Z,38.30
2018-05-31T08:28:36.911Z,38.30
2018-05-31T08:31:04.442Z,39.70
2018-05-31T08:33:32.345Z,38.50
2018-05-31T08:35:59.882Z,38.50
2018-05-31T08:38:27.409Z,37.80
2018-05-31T08:40:55.329Z,38.80
2018-05-31T08:43:22.837Z,38.80
2018-05-31T08:45:50.369Z,37.80
2018-05-31T08:48:17.868Z,38.30
2018-05-31T08:50:45.413Z,38.30
2018-05-31T08:53:12.921Z,38.90
2018-05-31T08:55:40.450Z,38.90
2018-05-31T08:58:07.965Z,38.60
2018-05-31T09:00:35.509Z,38.90
2018-05-31T09:03:03.022Z,39.80
2018-05-31T09:05:30.562Z,40.50
2018-05-31T09:07:58.067Z,40.00
2018-05-31T09:10:25.601Z,39.10
2018-05-31T09:12:53.108Z,38.70
2018-05-31T09:15:20.637Z,38.60
2018-05-31T09:17:48.144Z,39.10
2018-05-31T09:20:15.690Z,40.00
2018-05-31T09:22:43.245Z,39.00
2018-05-31T09:25:10.798Z,38.70
2018-05-31T09:27:38.317Z,38.30
2018-05-31T09:30:05.862Z,38.10
2018-05-31T09:32:33.370Z,39.60
2018-05-31T09:35:00.933Z,40.10
2018-05-31T09:37:28.449Z,40.30
2018-05-31T09:39:55.969Z,39.60
2018-05-31T09:42:23.505Z,40.10
2018-05-31T09:44:51.017Z,40.20
2018-05-31T09:47:18.561Z,40.80
2018-05-31T09:49:46.072Z,40.80
2018-05-31T09:52:13.609Z,38.10
2018-05-31T09:54:41.109Z,38.30
2018-05-31T09:57:08.649Z,38.70
2018-05-31T09:59:36.157Z,39.70
2018-05-31T10:02:03.702Z,39.40
2018-05-31T10:04:31.202Z,39.20
2018-05-31T10:06:58.748Z,39.00
2018-05-31T10:09:26.253Z,39.30
2018-05-31T10:11:53.789Z,39.30
2018-05-31T10:14:21.293Z,39.30
2018-05-31T10:16:48.849Z,39.10
2018-05-31T10:19:16.762Z,38.90
2018-05-31T10:21:44.366Z,38.60
2018-05-31T10:24:12.271Z,38.60
2018-05-31T10:26:39.806Z,38.90
2018-05-31T10:29:07.331Z,39.00
2018-05-31T10:31:34.877Z,38.00
2018-05-31T10:34:02.392Z,38.00
2018-05-31T10:36:29.924Z,38.40
2018-05-31T10:38:57.830Z,38.10
2018-05-31T10:41:25.378Z,38.30
2018-05-31T10:43:52.883Z,38.40
2018-05-31T10:46:20.851Z,37.80
2018-05-31T10:48:48.363Z,37.80
2018-05-31T10:51:15.890Z,37.30
2018-05-31T10:53:43.403Z,35.60
2018-05-31T10:56:10.949Z,34.30
2018-05-31T10:58:38.449Z,33.50
2018-05-31T11:01:05.975Z,31.50
2018-05-31T11:03:33.494Z,31.10
2018-05-31T11:06:01.022Z,30.70
2018-05-31T11:08:28.536Z,30.10
2018-05-31T11:10:56.047Z,30.00
2018-05-31T11:13:23.686Z,29.80
2018-05-31T11:15:51.225Z,29.30
2018-05-31T11:18:19.162Z,29.10
2018-05-31T11:20:46.661Z,28.80
2018-05-31T11:23:14.217Z,28.70
2018-05-31T11:25:41.738Z,28.70
2018-05-31T11:28:09.285Z,28.30
2018-05-31T11:30:36.790Z,28.30
2018-05-31T11:33:04.353Z,28.30
2018-05-31T11:35:31.864Z,28.30
2018-05-31T11:37:59.393Z,28.20
2018-05-31T11:40:26.894Z,28.20
2018-05-31T11:42:54.583Z,28.10
2018-05-31T11:45:22.252Z,28.20
2018-05-31T11:47:49.785Z,28.30
2018-05-31T11:50:17.295Z,28.10
2018-05-31T11:52:45.019Z,28.00
2018-05-31T11:55:12.535Z,28.10
2018-05-31T11:57:40.460Z,28.30
2018-05-31T12:00:07.965Z,28.40
2018-05-31T12:02:35.505Z,28.40
2018-05-31T12:05:03.022Z,28.50
2018-05-31T12:07:30.561Z,28.60
2018-05-31T12:09:58.232Z,28.50
2018-05-31T12:12:25.781Z,28.40
2018-05-31T12:14:53.282Z,28.30
2018-05-31T12:17:20.870Z,28.30
2018-05-31T12:19:48.339Z,28.40
2018-05-31T12:22:15.883Z,28.40
2018-05-31T12:24:43.390Z,28.40
2018-05-31T12:27:10.949Z,28.50
2018-05-31T12:29:38.481Z,28.50
2018-05-31T12:32:06.036Z,28.60
2018-05-31T12:34:33.556Z,28.70
2018-05-31T12:37:01.084Z,28.50
2018-05-31T12:39:28.611Z,28.20
2018-05-31T12:41:56.180Z,28.00
2018-05-31T12:44:23.689Z,27.90
2018-05-31T12:46:51.265Z,28.00
2018-05-31T12:49:18.810Z,28.00
2018-05-31T12:51:46.341Z,27.90
2018-05-31T12:54:13.865Z,28.00
2018-05-31T12:56:41.385Z,28.00
2018-05-31T12:59:08.917Z,28.10
2018-05-31T13:01:36.493Z,28.20
2018-05-31T13:04:04.037Z,28.30
2018-05-31T13:06:31.609Z,28.20
2018-05-31T13:08:59.153Z,28.20
2018-05-31T13:11:26.657Z,28.00
2018-05-31T13:13:54.198Z,27.80
2018-05-31T13:16:21.733Z,27.60
2018-05-31T13:18:49.306Z,27.60
2018-05-31T13:21:16.793Z,27.50
2018-05-31T13:23:44.313Z,27.50
2018-05-31T13:26:11.836Z,27.50
2018-05-31T13:28:39.373Z,27.50
2018-05-31T13:31:07.271Z,27.30
2018-05-31T13:33:34.828Z,27.20
2018-05-31T13:36:02.339Z,27.00
2018-05-31T13:38:30.261Z,26.90
2018-05-31T13:40:57.793Z,26.90
2018-05-31T13:43:25.333Z,26.90
2018-05-31T13:45:52.837Z,26.90
2018-05-31T13:48:20.370Z,26.90
2018-05-31T13:50:47.885Z,26.90
2018-05-31T13:53:15.819Z,27.00
2018-05-31T13:55:43.377Z,27.10
2018-05-31T13:58:10.906Z,26.90
2018-05-31T14:00:38.410Z,26.90
2018-05-31T14:03:06.346Z,26.90
2018-05-31T14:05:33.849Z,26.90
2018-05-31T14:08:01.789Z,26.80
2018-05-31T14:10:29.313Z,26.80
2018-05-31T14:12:56.849Z,26.90
2018-05-31T14:15:24.361Z,26.90
2018-05-31T14:17:51.905Z,26.90
2018-05-31T14:20:19.413Z,26.90
2018-05-31T14:22:47.056Z,27.00
2018-05-31T14:25:15.513Z,27.10
2018-05-31T14:27:43.119Z,27.00
2018-05-31T14:30:10.658Z,27.00
2018-05-31T14:32:38.174Z,26.90
2018-05-31T14:35:05.701Z,26.80
2018-05-31T14:37:33.344Z,26.70
2018-05-31T14:40:01.005Z,26.90
2018-05-31T14:42:28.515Z,26.90
2018-05-31T14:44:56.463Z,26.80
2018-05-31T14:47:23.975Z,26.80
2018-05-31T14:49:51.503Z,26.90
2018-05-31T14:52:19.413Z,27.10
2018-05-31T14:54:46.965Z,27.20
2018-05-31T14:57:14.466Z,27.30
2018-05-31T14:59:41.998Z,27.40
2018-05-31T15:02:09.507Z,27.50
2018-05-31T15:04:37.041Z,27.50
2018-05-31T15:07:04.943Z,27.40
2018-05-31T15:09:32.495Z,27.40
2018-05-31T15:11:59.998Z,27.50
2018-05-31T15:14:27.549Z,27.50
2018-05-31T15:16:55.404Z,27.20
2018-05-31T15:19:22.939Z,27.10
2018-05-31T15:21:50.581Z,27.10
2018-05-31T15:24:18.121Z,27.00
2018-05-31T15:26:45.625Z,27.00
2018-05-31T15:29:13.149Z,27.00
2018-05-31T15:31:40.814Z,27.00
2018-05-31T15:34:08.474Z,27.00
2018-05-31T15:36:35.979Z,27.10
2018-05-31T15:39:03.533Z,26.90
2018-05-31T15:41:31.054Z,26.80
2018-05-31T15:43:58.581Z,26.70
2018-05-31T15:46:26.141Z,26.60
2018-05-31T15:48:53.674Z,26.50
2018-05-31T15:51:21.572Z,26.60
2018-05-31T15:53:49.097Z,26.60
2018-05-31T15:56:16.596Z,26.60
2018-05-31T15:58:44.105Z,26.70
2018-05-31T16:01:12.035Z,26.60
2018-05-31T16:03:39.542Z,26.60
2018-05-31T16:06:07.129Z,26.50
2018-05-31T16:08:34.629Z,26.40
2018-05-31T16:11:02.175Z,26.30
2018-05-31T16:13:29.679Z,25.40
2018-05-31T16:15:57.213Z,24.80
2018-05-31T16:18:24.895Z,24.20
2018-05-31T16:20:52.425Z,24.00
2018-05-31T16:23:19.922Z,23.70
2018-05-31T16:25:47.672Z,23.60
2018-05-31T16:28:15.316Z,23.30
2018-05-31T16:30:42.862Z,23.20
2018-05-31T16:33:10.425Z,23.00
2018-05-31T16:35:38.089Z,22.90
2018-05-31T16:38:05.589Z,22.80
2018-05-31T16:40:33.114Z,22.70
2018-05-31T16:43:00.685Z,22.60
2018-05-31T16:45:28.236Z,22.50
2018-05-31T16:47:55.748Z,22.50
2018-05-31T16:50:23.426Z,22.50
2018-05-31T16:52:50.970Z,22.60
2018-05-31T16:55:18.499Z,22.60
2018-05-31T16:57:46.004Z,22.60
2018-05-31T17:00:13.529Z,22.60
2018-05-31T17:02:41.425Z,22.50
2018-05-31T17:05:08.961Z,22.50
2018-05-31T17:07:36.475Z,22.50
2018-05-31T17:10:04.035Z,22.50
2018-05-31T17:12:31.537Z,22.50
2018-05-31T17:14:59.097Z,22.40
2018-05-31T17:17:26.605Z,22.40
2018-05-31T17:19:54.142Z,22.40
2018-05-31T17:22:21.670Z,22.30
2018-05-31T17:24:49.216Z,22.30
2018-05-31T17:27:16.725Z,22.30
2018-05-31T17:29:44.231Z,22.40
2018-05-31T17:32:11.762Z,22.40
2018-05-31T17:34:39.662Z,22.40
2018-05-31T17:37:07.191Z,22.40
2018-05-31T17:39:34.696Z,22.30
2018-05-31T17:42:03.198Z,22.20
2018-05-31T17:44:30.698Z,22.10
2018-05-31T17:46:58.227Z,22.00
2018-05-31T17:49:26.124Z,21.90
2018-05-31T17:51:53.678Z,21.90
2018-05-31T17:54:21.182Z,21.90
2018-05-31T17:56:48.725Z,21.90
2018-05-31T17:59:16.226Z,22.00
2018-05-31T18:01:43.779Z,22.00
2018-05-31T18:04:11.288Z,22.00
2018-05-31T18:06:38.827Z,22.00
2018-05-31T18:09:06.333Z,21.90
2018-05-31T18:11:34.265Z,21.90
2018-05-31T18:14:01.765Z,21.90
2018-05-31T18:16:29.307Z,21.80
2018-05-31T18:18:57.210Z,21.50
2018-05-31T18:21:24.745Z,21.50
2018-05-31T18:23:52.257Z,21.40
2018-05-31T18:26:19.793Z,21.10
2018-05-31T18:28:47.315Z,21.00
2018-05-31T18:31:14.853Z,20.80
2018-05-31T18:33:42.758Z,20.70
2018-05-31T18:36:10.308Z,20.70
2018-05-31T18:38:37.829Z,20.70
2018-05-31T18:41:05.361Z,20.60
2018-05-31T18:43:32.875Z,20.60
2018-05-31T18:46:00.407Z,20.50
2018-05-31T18:48:27.910Z,20.40
2018-05-31T18:50:55.458Z,20.30
2018-05-31T18:53:22.965Z,20.20
2018-05-31T18:55:50.897Z,20.30
2018-05-31T18:58:18.399Z,20.30
2018-05-31T19:00:45.945Z,20.30
2018-05-31T19:03:13.838Z,20.40
2018-05-31T19:05:41.340Z,20.40
2018-05-31T19:08:08.865Z,20.40
2018-05-31T19:10:36.385Z,20.50
2018-05-31T19:13:09.486Z,20.50
2018-05-31T19:15:37.027Z,20.50
2018-05-31T19:18:04.953Z,20.40
2018-05-31T19:20:32.471Z,20.40
2018-05-31T19:22:59.998Z,20.30
2018-05-31T19:25:27.897Z,20.30
2018-05-31T19:27:55.446Z,20.30
2018-05-31T19:30:28.673Z,20.20
2018-05-31T19:32:56.212Z,20.20
2018-05-31T19:35:29.525Z,20.20
2018-05-31T19:37:57.064Z,20.20
2018-05-31T19:40:24.573Z,20.20
2018-05-31T19:42:57.689Z,20.20
2018-05-31T19:45:25.192Z,20.20
2018-05-31T19:47:53.117Z,20.20
2018-05-31T19:50:20.621Z,20.20
2018-05-31T19:52:54.121Z,20.10
2018-05-31T19:55:21.623Z,20.10
2018-05-31T19:57:54.849Z,20.10
2018-05-31T20:00:28.345Z,20.10
2018-05-31T20:03:01.609Z,20.10
2018-05-31T20:05:29.126Z,20.10
2018-05-31T20:07:56.706Z,20.00
2018-05-31T20:10:24.189Z,19.90
2018-05-31T20:12:51.750Z,19.90
2018-05-31T20:15:19.257Z,19.90
2018-05-31T20:17:46.797Z,19.80
2018-05-31T20:20:14.308Z,19.80
2018-05-31T20:22:41.838Z,19.80
2018-05-31T20:25:09.342Z,19.70
2018-05-31T20:27:37.272Z,19.70
2018-05-31T20:30:04.778Z,19.60
2018-05-31T20:32:32.360Z,19.60
2018-05-31T20:35:00.233Z,19.40
2018-05-31T20:37:27.777Z,19.50
2018-05-31T20:39:55.280Z,19.40
2018-05-31T20:42:22.804Z,19.30
2018-05-31T20:44:50.309Z,19.20
2018-05-31T20:47:17.843Z,18.90
2018-05-31T20:49:45.354Z,18.80
2018-05-31T20:52:12.897Z,18.80
2018-05-31T20:54:40.411Z,18.80
2018-05-31T20:57:08.328Z,18.70
2018-05-31T20:59:35.864Z,18.60
2018-05-31T21:02:03.394Z,18.60
2018-05-31T21:04:30.917Z,18.50
2018-05-31T21:06:58.417Z,18.50
2018-05-31T21:09:25.961Z,18.40
2018-05-31T21:11:53.467Z,18.30
2018-05-31T21:14:21.022Z,18.30
2018-05-31T21:16:48.522Z,18.20
2018-05-31T21:19:16.050Z,18.20
2018-05-31T21:21:43.573Z,18.10
2018-05-31T21:24:11.101Z,18.10
2018-05-31T21:26:39.013Z,18.30
2018-05-31T21:29:06.550Z,18.30
2018-05-31T21:31:34.071Z,18.30
2018-05-31T21:34:01.605Z,18.30
2018-05-31T21:36:29.134Z,18.40
2018-05-31T21:38:56.686Z,18.40
2018-05-31T21:41:24.181Z,18.40
2018-05-31T21:43:51.713Z,18.40
2018-05-31T21:46:19.226Z,18.40
2018-05-31T21:48:47.157Z,18.30
2018-05-31T21:51:14.674Z,18.30
2018-05-31T21:53:42.201Z,18.30
2018-05-31T21:56:10.125Z,18.30
2018-05-31T21:58:37.661Z,18.30
2018-05-31T22:01:05.169Z,18.30
2018-05-31T22:03:32.704Z,18.30
2018-05-31T22:06:00.201Z,18.30
2018-05-31T22:08:27.745Z,18.30
2018-05-31T22:10:55.249Z,18.30
2018-05-31T22:13:22.796Z,18.30
2018-05-31T22:15:50.305Z,18.20
2018-05-31T22:18:18.251Z,18.30
2018-05-31T22:20:45.749Z,18.30
2018-05-31T22:23:13.277Z,18.30
2018-05-31T22:25:41.185Z,18.30
2018-05-31T22:28:08.731Z,18.30
2018-05-31T22:30:36.231Z,18.20
2018-05-31T22:33:03.733Z,18.20
2018-05-31T22:35:31.273Z,18.20
2018-05-31T22:37:58.773Z,18.20
2018-05-31T22:40:26.313Z,18.20
2018-05-31T22:42:53.818Z,18.30
2018-05-31T22:45:21.349Z,18.30
2018-05-31T22:47:48.851Z,18.30
2018-05-31T22:50:16.846Z,18.20
2018-05-31T22:52:44.341Z,18.20
2018-05-31T22:55:11.902Z,18.20
2018-05-31T22:57:39.398Z,18.10
2018-05-31T23:00:06.942Z,18.20
2018-05-31T23:02:34.845Z,18.10
2018-05-31T23:05:02.371Z,18.10
2018-05-31T23:07:29.882Z,18.10
2018-05-31T23:09:57.406Z,18.10
2018-05-31T23:12:24.926Z,18.20
2018-05-31T23:14:52.856Z,18.20
2018-05-31T23:17:20.357Z,18.10
2018-05-31T23:19:47.881Z,18.20
2018-05-31T23:22:15.391Z,18.20
2018-05-31T23:24:42.920Z,18.30
2018-05-31T23:27:10.421Z,18.30
2018-05-31T23:29:37.967Z,18.20
2018-05-31T23:32:05.874Z,18.20
2018-05-31T23:34:33.808Z,18.10
2018-05-31T23:37:01.312Z,18.10
2018-05-31T23:39:29.245Z,18.00
2018-05-31T23:41:56.745Z,18.00
2018-05-31T23:44:24.297Z,18.20
2018-05-31T23:46:51.816Z,18.20
2018-05-31T23:49:19.337Z,18.30
2018-05-31T23:51:46.841Z,18.30
2018-05-31T23:54:14.377Z,18.30
2018-05-31T23:56:41.887Z,18.30
2018-05-31T23:59:09.418Z,18.30
